sensor_id;sensor_type;location;lat;lon;timestamp;P1;durP1;ratioP1;P2;durP2;ratioP2
56122;SDS011;42426;46.104;19.656;2023-05-23T00:00:30;13.50;;;10.80;;
56122;SDS011;42426;46.104;19.656;2023-05-23T00:02:57;14.07;;;10.18;;
56122;SDS011;42426;46.104;19.656;2023-05-23T00:05:24;11.93;;;9.50;;
56122;SDS011;42426;46.104;19.656;2023-05-23T00:07:51;17.38;;;12.27;;
56122;SDS011;42426;46.104;19.656;2023-05-23T00:10:16;12.18;;;10.02;;
56122;SDS011;42426;46.104;19.656;2023-05-23T00:12:42;19.35;;;10.68;;
56122;SDS011;42426;46.104;19.656;2023-05-23T00:15:08;12.70;;;11.07;;
56122;SDS011;42426;46.104;19.656;2023-05-23T00:17:34;12.10;;;9.82;;
56122;SDS011;42426;46.104;19.656;2023-05-23T00:20:02;16.00;;;10.55;;
56122;SDS011;42426;46.104;19.656;2023-05-23T00:22:28;13.30;;;10.73;;
56122;SDS011;42426;46.104;19.656;2023-05-23T00:24:54;13.35;;;11.55;;
56122;SDS011;42426;46.104;19.656;2023-05-23T00:27:22;13.23;;;11.45;;
56122;SDS011;42426;46.104;19.656;2023-05-23T00:29:49;17.85;;;12.80;;
56122;SDS011;42426;46.104;19.656;2023-05-23T00:32:14;17.10;;;13.68;;
56122;SDS011;42426;46.104;19.656;2023-05-23T00:34:40;19.60;;;15.35;;
56122;SDS011;42426;46.104;19.656;2023-05-23T00:37:06;20.77;;;17.02;;
56122;SDS011;42426;46.104;19.656;2023-05-23T00:39:32;28.17;;;20.67;;
56122;SDS011;42426;46.104;19.656;2023-05-23T00:41:58;28.63;;;24.63;;
56122;SDS011;42426;46.104;19.656;2023-05-23T00:44:28;34.50;;;25.92;;
56122;SDS011;42426;46.104;19.656;2023-05-23T00:46:54;29.80;;;26.60;;
56122;SDS011;42426;46.104;19.656;2023-05-23T00:49:21;32.63;;;26.48;;
56122;SDS011;42426;46.104;19.656;2023-05-23T00:51:47;30.42;;;25.40;;
56122;SDS011;42426;46.104;19.656;2023-05-23T00:54:13;26.27;;;22.83;;
56122;SDS011;42426;46.104;19.656;2023-05-23T00:56:44;22.98;;;20.40;;
56122;SDS011;42426;46.104;19.656;2023-05-23T00:59:11;22.80;;;18.77;;
56122;SDS011;42426;46.104;19.656;2023-05-23T01:01:37;26.05;;;18.92;;
56122;SDS011;42426;46.104;19.656;2023-05-23T01:04:04;22.45;;;18.55;;
56122;SDS011;42426;46.104;19.656;2023-05-23T01:06:31;23.85;;;17.52;;
56122;SDS011;42426;46.104;19.656;2023-05-23T01:09:01;18.70;;;15.70;;
56122;SDS011;42426;46.104;19.656;2023-05-23T01:11:34;19.40;;;16.95;;
56122;SDS011;42426;46.104;19.656;2023-05-23T01:14:09;21.25;;;16.25;;
56122;SDS011;42426;46.104;19.656;2023-05-23T01:16:57;19.02;;;15.80;;
56122;SDS011;42426;46.104;19.656;2023-05-23T01:25:53;16.17;;;14.13;;
56122;SDS011;42426;46.104;19.656;2023-05-23T01:28:01;21.58;;;16.02;;
56122;SDS011;42426;46.104;19.656;2023-05-23T01:30:30;18.33;;;15.57;;
56122;SDS011;42426;46.104;19.656;2023-05-23T01:32:59;18.70;;;15.48;;
56122;SDS011;42426;46.104;19.656;2023-05-23T01:35:26;19.77;;;16.30;;
56122;SDS011;42426;46.104;19.656;2023-05-23T01:37:55;17.67;;;15.02;;
56122;SDS011;42426;46.104;19.656;2023-05-23T01:40:22;17.85;;;15.20;;
56122;SDS011;42426;46.104;19.656;2023-05-23T01:42:54;19.33;;;15.48;;
56122;SDS011;42426;46.104;19.656;2023-05-23T01:45:25;20.23;;;17.35;;
56122;SDS011;42426;46.104;19.656;2023-05-23T01:47:54;19.13;;;15.63;;
56122;SDS011;42426;46.104;19.656;2023-05-23T01:50:21;19.10;;;16.67;;
56122;SDS011;42426;46.104;19.656;2023-05-23T01:52:48;21.63;;;15.82;;
56122;SDS011;42426;46.104;19.656;2023-05-23T01:55:17;17.50;;;14.93;;
56122;SDS011;42426;46.104;19.656;2023-05-23T01:57:46;21.02;;;15.85;;
56122;SDS011;42426;46.104;19.656;2023-05-23T02:00:15;18.60;;;15.70;;
56122;SDS011;42426;46.104;19.656;2023-05-23T02:02:43;19.95;;;15.63;;
56122;SDS011;42426;46.104;19.656;2023-05-23T02:05:09;20.27;;;15.93;;
56122;SDS011;42426;46.104;19.656;2023-05-23T02:07:41;19.00;;;15.60;;
56122;SDS011;42426;46.104;19.656;2023-05-23T02:10:07;20.52;;;15.02;;
56122;SDS011;42426;46.104;19.656;2023-05-23T02:12:33;25.92;;;17.42;;
56122;SDS011;42426;46.104;19.656;2023-05-23T02:14:59;20.98;;;16.23;;
56122;SDS011;42426;46.104;19.656;2023-05-23T02:17:26;18.75;;;15.82;;
56122;SDS011;42426;46.104;19.656;2023-05-23T02:19:52;19.23;;;16.42;;
56122;SDS011;42426;46.104;19.656;2023-05-23T02:22:21;20.35;;;16.70;;
56122;SDS011;42426;46.104;19.656;2023-05-23T02:24:53;18.40;;;14.43;;
56122;SDS011;42426;46.104;19.656;2023-05-23T02:27:18;18.92;;;14.52;;
56122;SDS011;42426;46.104;19.656;2023-05-23T02:29:44;21.35;;;15.90;;
56122;SDS011;42426;46.104;19.656;2023-05-23T02:32:10;20.70;;;14.85;;
56122;SDS011;42426;46.104;19.656;2023-05-23T02:34:36;18.35;;;14.68;;
56122;SDS011;42426;46.104;19.656;2023-05-23T02:37:03;17.13;;;13.65;;
56122;SDS011;42426;46.104;19.656;2023-05-23T02:39:29;14.85;;;13.02;;
56122;SDS011;42426;46.104;19.656;2023-05-23T02:41:55;16.10;;;13.48;;
56122;SDS011;42426;46.104;19.656;2023-05-23T02:44:20;16.42;;;13.38;;
56122;SDS011;42426;46.104;19.656;2023-05-23T02:46:46;17.23;;;12.63;;
56122;SDS011;42426;46.104;19.656;2023-05-23T02:49:14;17.88;;;13.80;;
56122;SDS011;42426;46.104;19.656;2023-05-23T02:51:40;15.05;;;12.27;;
56122;SDS011;42426;46.104;19.656;2023-05-23T02:54:05;17.10;;;13.07;;
56122;SDS011;42426;46.104;19.656;2023-05-23T02:56:32;16.00;;;13.07;;
56122;SDS011;42426;46.104;19.656;2023-05-23T02:58:58;13.98;;;12.10;;
56122;SDS011;42426;46.104;19.656;2023-05-23T03:01:24;15.63;;;12.55;;
56122;SDS011;42426;46.104;19.656;2023-05-23T03:03:49;15.88;;;12.50;;
56122;SDS011;42426;46.104;19.656;2023-05-23T03:06:15;12.85;;;11.45;;
56122;SDS011;42426;46.104;19.656;2023-05-23T03:08:41;15.27;;;12.75;;
56122;SDS011;42426;46.104;19.656;2023-05-23T03:11:07;15.57;;;11.82;;
56122;SDS011;42426;46.104;19.656;2023-05-23T03:13:36;17.23;;;12.45;;
56122;SDS011;42426;46.104;19.656;2023-05-23T03:16:01;14.43;;;12.35;;
56122;SDS011;42426;46.104;19.656;2023-05-23T03:18:27;16.48;;;12.50;;
56122;SDS011;42426;46.104;19.656;2023-05-23T03:20:53;15.82;;;11.73;;
56122;SDS011;42426;46.104;19.656;2023-05-23T03:23:19;15.48;;;11.23;;
56122;SDS011;42426;46.104;19.656;2023-05-23T03:25:46;13.65;;;11.25;;
56122;SDS011;42426;46.104;19.656;2023-05-23T03:28:12;19.80;;;13.18;;
56122;SDS011;42426;46.104;19.656;2023-05-23T03:30:39;16.15;;;13.10;;
56122;SDS011;42426;46.104;19.656;2023-05-23T03:33:05;16.85;;;12.77;;
56122;SDS011;42426;46.104;19.656;2023-05-23T03:35:31;16.67;;;13.07;;
56122;SDS011;42426;46.104;19.656;2023-05-23T03:37:59;17.30;;;12.98;;
56122;SDS011;42426;46.104;19.656;2023-05-23T03:40:25;16.02;;;12.15;;
56122;SDS011;42426;46.104;19.656;2023-05-23T03:43:03;15.48;;;13.75;;
56122;SDS011;42426;46.104;19.656;2023-05-23T03:45:37;18.52;;;13.15;;
56122;SDS011;42426;46.104;19.656;2023-05-23T03:48:03;15.25;;;13.05;;
56122;SDS011;42426;46.104;19.656;2023-05-23T03:50:29;17.45;;;12.98;;
56122;SDS011;42426;46.104;19.656;2023-05-23T03:52:57;19.13;;;12.68;;
56122;SDS011;42426;46.104;19.656;2023-05-23T03:55:23;20.67;;;12.68;;
56122;SDS011;42426;46.104;19.656;2023-05-23T03:57:49;18.88;;;13.18;;
56122;SDS011;42426;46.104;19.656;2023-05-23T04:00:20;17.08;;;13.50;;
56122;SDS011;42426;46.104;19.656;2023-05-23T04:02:45;19.38;;;14.57;;
56122;SDS011;42426;46.104;19.656;2023-05-23T04:05:12;21.83;;;14.13;;
56122;SDS011;42426;46.104;19.656;2023-05-23T04:07:42;17.02;;;13.63;;
56122;SDS011;42426;46.104;19.656;2023-05-23T04:10:08;17.92;;;14.95;;
56122;SDS011;42426;46.104;19.656;2023-05-23T04:12:35;20.38;;;13.75;;
56122;SDS011;42426;46.104;19.656;2023-05-23T04:15:03;17.20;;;13.75;;
56122;SDS011;42426;46.104;19.656;2023-05-23T04:17:29;18.90;;;13.73;;
56122;SDS011;42426;46.104;19.656;2023-05-23T04:19:55;19.15;;;13.80;;
56122;SDS011;42426;46.104;19.656;2023-05-23T04:22:24;19.92;;;13.80;;
56122;SDS011;42426;46.104;19.656;2023-05-23T04:24:49;15.43;;;12.73;;
56122;SDS011;42426;46.104;19.656;2023-05-23T04:27:15;18.35;;;13.38;;
56122;SDS011;42426;46.104;19.656;2023-05-23T04:29:43;14.82;;;13.07;;
56122;SDS011;42426;46.104;19.656;2023-05-23T04:32:10;17.63;;;13.35;;
56122;SDS011;42426;46.104;19.656;2023-05-23T04:34:39;20.73;;;12.68;;
56122;SDS011;42426;46.104;19.656;2023-05-23T04:37:05;23.45;;;13.43;;
56122;SDS011;42426;46.104;19.656;2023-05-23T04:39:31;15.25;;;12.05;;
56122;SDS011;42426;46.104;19.656;2023-05-23T04:41:57;18.52;;;12.98;;
56122;SDS011;42426;46.104;19.656;2023-05-23T04:44:23;23.40;;;13.70;;
56122;SDS011;42426;46.104;19.656;2023-05-23T04:46:50;17.50;;;13.48;;
56122;SDS011;42426;46.104;19.656;2023-05-23T04:49:16;19.23;;;14.05;;
56122;SDS011;42426;46.104;19.656;2023-05-23T04:51:45;19.20;;;13.95;;
56122;SDS011;42426;46.104;19.656;2023-05-23T04:54:11;23.17;;;13.30;;
56122;SDS011;42426;46.104;19.656;2023-05-23T04:56:36;16.88;;;12.95;;
56122;SDS011;42426;46.104;19.656;2023-05-23T04:59:02;16.80;;;13.15;;
56122;SDS011;42426;46.104;19.656;2023-05-23T05:01:28;14.57;;;12.68;;
56122;SDS011;42426;46.104;19.656;2023-05-23T05:03:55;19.88;;;12.95;;
56122;SDS011;42426;46.104;19.656;2023-05-23T05:06:21;16.75;;;13.43;;
56122;SDS011;42426;46.104;19.656;2023-05-23T05:08:47;19.08;;;12.82;;
56122;SDS011;42426;46.104;19.656;2023-05-23T05:11:13;15.60;;;12.70;;
56122;SDS011;42426;46.104;19.656;2023-05-23T05:13:38;18.20;;;12.73;;
56122;SDS011;42426;46.104;19.656;2023-05-23T05:16:04;19.08;;;14.32;;
56122;SDS011;42426;46.104;19.656;2023-05-23T05:18:30;17.95;;;13.82;;
56122;SDS011;42426;46.104;19.656;2023-05-23T05:20:56;17.23;;;13.13;;
56122;SDS011;42426;46.104;19.656;2023-05-23T05:23:25;19.88;;;14.57;;
56122;SDS011;42426;46.104;19.656;2023-05-23T05:25:55;22.40;;;14.27;;
56122;SDS011;42426;46.104;19.656;2023-05-23T05:28:22;17.92;;;13.65;;
56122;SDS011;42426;46.104;19.656;2023-05-23T05:30:47;18.38;;;15.48;;
56122;SDS011;42426;46.104;19.656;2023-05-23T05:33:18;20.15;;;13.88;;
56122;SDS011;42426;46.104;19.656;2023-05-23T05:35:47;18.27;;;13.95;;
56122;SDS011;42426;46.104;19.656;2023-05-23T05:38:15;18.77;;;13.68;;
56122;SDS011;42426;46.104;19.656;2023-05-23T05:40:41;16.17;;;13.68;;
56122;SDS011;42426;46.104;19.656;2023-05-23T05:43:08;27.50;;;13.68;;
56122;SDS011;42426;46.104;19.656;2023-05-23T05:45:34;18.70;;;13.98;;
56122;SDS011;42426;46.104;19.656;2023-05-23T05:48:00;15.32;;;13.35;;
56122;SDS011;42426;46.104;19.656;2023-05-23T05:50:26;19.77;;;13.60;;
56122;SDS011;42426;46.104;19.656;2023-05-23T05:52:51;22.98;;;13.48;;
56122;SDS011;42426;46.104;19.656;2023-05-23T05:55:19;17.08;;;11.73;;
56122;SDS011;42426;46.104;19.656;2023-05-23T05:57:45;16.88;;;12.57;;
56122;SDS011;42426;46.104;19.656;2023-05-23T06:00:12;14.82;;;12.20;;
56122;SDS011;42426;46.104;19.656;2023-05-23T06:02:43;13.73;;;11.40;;
56122;SDS011;42426;46.104;19.656;2023-05-23T06:05:12;19.00;;;12.57;;
56122;SDS011;42426;46.104;19.656;2023-05-23T06:07:40;16.73;;;12.35;;
56122;SDS011;42426;46.104;19.656;2023-05-23T06:10:07;14.25;;;11.52;;
56122;SDS011;42426;46.104;19.656;2023-05-23T06:12:36;14.95;;;11.48;;
56122;SDS011;42426;46.104;19.656;2023-05-23T06:15:04;14.20;;;11.95;;
56122;SDS011;42426;46.104;19.656;2023-05-23T06:17:30;15.55;;;13.40;;
56122;SDS011;42426;46.104;19.656;2023-05-23T06:19:57;17.83;;;13.02;;
56122;SDS011;42426;46.104;19.656;2023-05-23T06:22:23;16.13;;;12.82;;
56122;SDS011;42426;46.104;19.656;2023-05-23T06:24:49;17.17;;;13.32;;
56122;SDS011;42426;46.104;19.656;2023-05-23T06:27:16;27.02;;;13.40;;
56122;SDS011;42426;46.104;19.656;2023-05-23T06:29:43;14.55;;;12.48;;
56122;SDS011;42426;46.104;19.656;2023-05-23T06:32:09;15.10;;;13.38;;
56122;SDS011;42426;46.104;19.656;2023-05-23T06:34:34;22.98;;;13.13;;
56122;SDS011;42426;46.104;19.656;2023-05-23T06:37:00;19.02;;;11.68;;
56122;SDS011;42426;46.104;19.656;2023-05-23T06:39:26;19.70;;;13.93;;
56122;SDS011;42426;46.104;19.656;2023-05-23T06:41:52;18.75;;;13.20;;
56122;SDS011;42426;46.104;19.656;2023-05-23T06:44:18;22.75;;;13.68;;
56122;SDS011;42426;46.104;19.656;2023-05-23T06:46:44;17.73;;;12.90;;
56122;SDS011;42426;46.104;19.656;2023-05-23T06:49:11;15.63;;;11.52;;
56122;SDS011;42426;46.104;19.656;2023-05-23T06:51:37;15.90;;;13.13;;
56122;SDS011;42426;46.104;19.656;2023-05-23T06:54:03;17.63;;;14.07;;
56122;SDS011;42426;46.104;19.656;2023-05-23T06:56:29;23.35;;;14.15;;
56122;SDS011;42426;46.104;19.656;2023-05-23T06:58:54;17.67;;;12.85;;
56122;SDS011;42426;46.104;19.656;2023-05-23T07:01:21;21.02;;;16.05;;
56122;SDS011;42426;46.104;19.656;2023-05-23T07:03:47;27.58;;;15.60;;
56122;SDS011;42426;46.104;19.656;2023-05-23T07:06:14;17.95;;;13.43;;
56122;SDS011;42426;46.104;19.656;2023-05-23T07:08:40;20.60;;;14.10;;
56122;SDS011;42426;46.104;19.656;2023-05-23T07:11:06;22.58;;;12.75;;
56122;SDS011;42426;46.104;19.656;2023-05-23T07:13:32;24.52;;;13.40;;
56122;SDS011;42426;46.104;19.656;2023-05-23T07:15:59;25.23;;;13.50;;
56122;SDS011;42426;46.104;19.656;2023-05-23T07:18:25;26.48;;;12.43;;
56122;SDS011;42426;46.104;19.656;2023-05-23T07:20:50;18.08;;;12.32;;
56122;SDS011;42426;46.104;19.656;2023-05-23T07:23:16;25.15;;;13.52;;
56122;SDS011;42426;46.104;19.656;2023-05-23T07:25:42;22.27;;;12.75;;
56122;SDS011;42426;46.104;19.656;2023-05-23T07:28:08;21.92;;;13.75;;
56122;SDS011;42426;46.104;19.656;2023-05-23T07:30:34;22.88;;;11.93;;
56122;SDS011;42426;46.104;19.656;2023-05-23T07:33:00;19.45;;;11.85;;
56122;SDS011;42426;46.104;19.656;2023-05-23T07:35:26;17.27;;;12.55;;
56122;SDS011;42426;46.104;19.656;2023-05-23T07:37:52;20.80;;;13.23;;
56122;SDS011;42426;46.104;19.656;2023-05-23T07:40:18;19.15;;;12.95;;
56122;SDS011;42426;46.104;19.656;2023-05-23T07:42:45;21.45;;;13.13;;
56122;SDS011;42426;46.104;19.656;2023-05-23T07:45:11;19.60;;;13.88;;
56122;SDS011;42426;46.104;19.656;2023-05-23T07:47:38;30.15;;;11.55;;
56122;SDS011;42426;46.104;19.656;2023-05-23T07:50:04;17.65;;;11.63;;
56122;SDS011;42426;46.104;19.656;2023-05-23T07:52:31;20.08;;;11.15;;
56122;SDS011;42426;46.104;19.656;2023-05-23T07:54:58;18.25;;;11.13;;
56122;SDS011;42426;46.104;19.656;2023-05-23T07:57:24;19.83;;;12.18;;
56122;SDS011;42426;46.104;19.656;2023-05-23T07:59:50;24.35;;;11.95;;
56122;SDS011;42426;46.104;19.656;2023-05-23T08:02:17;15.50;;;11.27;;
56122;SDS011;42426;46.104;19.656;2023-05-23T08:04:43;17.15;;;12.52;;
56122;SDS011;42426;46.104;19.656;2023-05-23T08:07:11;19.33;;;12.00;;
56122;SDS011;42426;46.104;19.656;2023-05-23T08:09:39;21.90;;;10.77;;
56122;SDS011;42426;46.104;19.656;2023-05-23T08:12:06;13.30;;;10.07;;
56122;SDS011;42426;46.104;19.656;2023-05-23T08:14:33;17.00;;;10.65;;
56122;SDS011;42426;46.104;19.656;2023-05-23T08:17:00;16.92;;;11.55;;
56122;SDS011;42426;46.104;19.656;2023-05-23T08:19:26;14.05;;;9.77;;
56122;SDS011;42426;46.104;19.656;2023-05-23T08:21:52;11.10;;;9.65;;
56122;SDS011;42426;46.104;19.656;2023-05-23T08:24:19;12.80;;;9.52;;
56122;SDS011;42426;46.104;19.656;2023-05-23T08:26:45;10.55;;;9.55;;
56122;SDS011;42426;46.104;19.656;2023-05-23T08:29:12;17.55;;;10.88;;
56122;SDS011;42426;46.104;19.656;2023-05-23T08:31:38;10.48;;;9.43;;
56122;SDS011;42426;46.104;19.656;2023-05-23T08:34:04;10.07;;;9.02;;
56122;SDS011;42426;46.104;19.656;2023-05-23T08:36:31;13.77;;;9.35;;
56122;SDS011;42426;46.104;19.656;2023-05-23T08:39:00;11.73;;;8.60;;
56122;SDS011;42426;46.104;19.656;2023-05-23T08:41:28;12.75;;;9.30;;
56122;SDS011;42426;46.104;19.656;2023-05-23T08:43:54;11.00;;;8.65;;
56122;SDS011;42426;46.104;19.656;2023-05-23T08:46:21;10.63;;;9.50;;
56122;SDS011;42426;46.104;19.656;2023-05-23T08:48:51;9.90;;;8.57;;
56122;SDS011;42426;46.104;19.656;2023-05-23T08:51:20;11.50;;;10.25;;
56122;SDS011;42426;46.104;19.656;2023-05-23T08:53:48;14.07;;;10.02;;
56122;SDS011;42426;46.104;19.656;2023-05-23T08:56:14;12.15;;;10.75;;
56122;SDS011;42426;46.104;19.656;2023-05-23T08:58:41;11.82;;;9.50;;
56122;SDS011;42426;46.104;19.656;2023-05-23T09:01:12;10.27;;;8.73;;
56122;SDS011;42426;46.104;19.656;2023-05-23T09:03:39;13.88;;;10.32;;
56122;SDS011;42426;46.104;19.656;2023-05-23T09:06:06;11.30;;;9.52;;
56122;SDS011;42426;46.104;19.656;2023-05-23T09:08:33;14.20;;;9.90;;
56122;SDS011;42426;46.104;19.656;2023-05-23T09:11:00;22.77;;;10.32;;
56122;SDS011;42426;46.104;19.656;2023-05-23T09:13:29;13.35;;;10.23;;
56122;SDS011;42426;46.104;19.656;2023-05-23T09:18:25;11.38;;;10.05;;
56122;SDS011;42426;46.104;19.656;2023-05-23T09:20:51;11.68;;;9.75;;
56122;SDS011;42426;46.104;19.656;2023-05-23T09:23:18;11.40;;;9.93;;
56122;SDS011;42426;46.104;19.656;2023-05-23T09:25:47;15.65;;;9.30;;
56122;SDS011;42426;46.104;19.656;2023-05-23T09:28:13;13.15;;;9.45;;
56122;SDS011;42426;46.104;19.656;2023-05-23T09:30:40;11.27;;;10.07;;
56122;SDS011;42426;46.104;19.656;2023-05-23T09:33:06;10.63;;;9.48;;
56122;SDS011;42426;46.104;19.656;2023-05-23T09:35:32;10.35;;;8.55;;
56122;SDS011;42426;46.104;19.656;2023-05-23T09:37:57;10.00;;;9.05;;
56122;SDS011;42426;46.104;19.656;2023-05-23T09:40:28;10.50;;;9.40;;
56122;SDS011;42426;46.104;19.656;2023-05-23T09:43:00;9.82;;;8.82;;
56122;SDS011;42426;46.104;19.656;2023-05-23T09:45:31;10.73;;;9.63;;
56122;SDS011;42426;46.104;19.656;2023-05-23T09:47:57;14.82;;;8.63;;
56122;SDS011;42426;46.104;19.656;2023-05-23T09:50:24;11.07;;;9.25;;
56122;SDS011;42426;46.104;19.656;2023-05-23T09:52:55;9.60;;;7.75;;
56122;SDS011;42426;46.104;19.656;2023-05-23T09:55:21;15.40;;;8.68;;
56122;SDS011;42426;46.104;19.656;2023-05-23T09:57:48;11.82;;;8.57;;
56122;SDS011;42426;46.104;19.656;2023-05-23T10:08:20;14.55;;;8.98;;
56122;SDS011;42426;46.104;19.656;2023-05-23T10:11:02;10.80;;;7.68;;
56122;SDS011;42426;46.104;19.656;2023-05-23T10:13:38;14.15;;;9.43;;
56122;SDS011;42426;46.104;19.656;2023-05-23T10:18:43;10.48;;;8.75;;
56122;SDS011;42426;46.104;19.656;2023-05-23T10:21:14;10.10;;;8.73;;
56122;SDS011;42426;46.104;19.656;2023-05-23T10:23:48;13.82;;;9.13;;
56122;SDS011;42426;46.104;19.656;2023-05-23T10:26:15;10.07;;;8.98;;
56122;SDS011;42426;46.104;19.656;2023-05-23T10:28:43;8.88;;;7.85;;
56122;SDS011;42426;46.104;19.656;2023-05-23T10:31:11;8.75;;;7.85;;
56122;SDS011;42426;46.104;19.656;2023-05-23T10:33:39;11.23;;;7.28;;
56122;SDS011;42426;46.104;19.656;2023-05-23T10:36:18;15.68;;;8.93;;
56122;SDS011;42426;46.104;19.656;2023-05-23T10:39:01;21.08;;;9.40;;
56122;SDS011;42426;46.104;19.656;2023-05-23T10:41:35;11.15;;;8.27;;
56122;SDS011;42426;46.104;19.656;2023-05-23T10:46:54;9.63;;;7.93;;
56122;SDS011;42426;46.104;19.656;2023-05-23T10:49:36;8.55;;;7.65;;
56122;SDS011;42426;46.104;19.656;2023-05-23T10:52:03;8.27;;;7.47;;
56122;SDS011;42426;46.104;19.656;2023-05-23T10:54:33;9.00;;;8.10;;
56122;SDS011;42426;46.104;19.656;2023-05-23T10:57:03;8.13;;;7.30;;
56122;SDS011;42426;46.104;19.656;2023-05-23T10:59:29;9.50;;;7.57;;
56122;SDS011;42426;46.104;19.656;2023-05-23T11:01:56;11.38;;;7.88;;
56122;SDS011;42426;46.104;19.656;2023-05-23T11:04:27;9.00;;;7.38;;
56122;SDS011;42426;46.104;19.656;2023-05-23T11:06:54;10.02;;;9.02;;
56122;SDS011;42426;46.104;19.656;2023-05-23T11:09:22;8.40;;;7.50;;
56122;SDS011;42426;46.104;19.656;2023-05-23T11:11:52;10.65;;;8.57;;
56122;SDS011;42426;46.104;19.656;2023-05-23T11:15:05;11.73;;;8.50;;
56122;SDS011;42426;46.104;19.656;2023-05-23T11:19:58;9.27;;;8.18;;
56122;SDS011;42426;46.104;19.656;2023-05-23T11:22:27;13.60;;;8.07;;
56122;SDS011;42426;46.104;19.656;2023-05-23T11:24:56;12.52;;;8.77;;
56122;SDS011;42426;46.104;19.656;2023-05-23T11:29:59;12.40;;;8.32;;
56122;SDS011;42426;46.104;19.656;2023-05-23T11:32:28;14.75;;;8.23;;
56122;SDS011;42426;46.104;19.656;2023-05-23T11:34:57;20.52;;;16.35;;
56122;SDS011;42426;46.104;19.656;2023-05-23T11:37:28;14.93;;;12.90;;
56122;SDS011;42426;46.104;19.656;2023-05-23T11:39:54;8.95;;;7.82;;
56122;SDS011;42426;46.104;19.656;2023-05-23T11:42:21;11.27;;;7.90;;
56122;SDS011;42426;46.104;19.656;2023-05-23T11:44:49;9.05;;;7.97;;
56122;SDS011;42426;46.104;19.656;2023-05-23T11:47:16;23.38;;;10.80;;
56122;SDS011;42426;46.104;19.656;2023-05-23T11:49:43;16.58;;;9.57;;
56122;SDS011;42426;46.104;19.656;2023-05-23T11:52:13;13.68;;;10.60;;
56122;SDS011;42426;46.104;19.656;2023-05-23T11:54:40;13.55;;;9.80;;
56122;SDS011;42426;46.104;19.656;2023-05-23T11:57:09;13.07;;;10.80;;
56122;SDS011;42426;46.104;19.656;2023-05-23T11:59:35;11.40;;;10.20;;
56122;SDS011;42426;46.104;19.656;2023-05-23T12:02:01;11.75;;;10.38;;
56122;SDS011;42426;46.104;19.656;2023-05-23T12:04:28;15.23;;;10.57;;
56122;SDS011;42426;46.104;19.656;2023-05-23T12:06:54;10.85;;;9.35;;
56122;SDS011;42426;46.104;19.656;2023-05-23T12:09:20;12.93;;;9.48;;
56122;SDS011;42426;46.104;19.656;2023-05-23T12:11:47;13.05;;;9.98;;
56122;SDS011;42426;46.104;19.656;2023-05-23T12:14:17;12.63;;;10.05;;
56122;SDS011;42426;46.104;19.656;2023-05-23T12:16:43;14.55;;;9.93;;
56122;SDS011;42426;46.104;19.656;2023-05-23T12:19:13;14.38;;;10.20;;
56122;SDS011;42426;46.104;19.656;2023-05-23T12:21:44;15.07;;;10.35;;
56122;SDS011;42426;46.104;19.656;2023-05-23T12:24:20;11.15;;;9.88;;
56122;SDS011;42426;46.104;19.656;2023-05-23T12:26:53;13.02;;;10.40;;
56122;SDS011;42426;46.104;19.656;2023-05-23T12:29:20;12.68;;;10.13;;
56122;SDS011;42426;46.104;19.656;2023-05-23T12:31:47;17.45;;;10.55;;
56122;SDS011;42426;46.104;19.656;2023-05-23T12:34:15;13.10;;;10.18;;
56122;SDS011;42426;46.104;19.656;2023-05-23T12:36:41;16.35;;;11.63;;
56122;SDS011;42426;46.104;19.656;2023-05-23T12:39:09;13.20;;;9.50;;
56122;SDS011;42426;46.104;19.656;2023-05-23T12:41:35;15.05;;;10.15;;
56122;SDS011;42426;46.104;19.656;2023-05-23T12:44:01;12.68;;;9.13;;
56122;SDS011;42426;46.104;19.656;2023-05-23T12:46:28;10.23;;;8.50;;
56122;SDS011;42426;46.104;19.656;2023-05-23T12:48:54;11.65;;;8.35;;
56122;SDS011;42426;46.104;19.656;2023-05-23T12:51:22;12.20;;;7.80;;
56122;SDS011;42426;46.104;19.656;2023-05-23T12:53:48;11.05;;;6.80;;
56122;SDS011;42426;46.104;19.656;2023-05-23T12:56:14;12.50;;;8.00;;
56122;SDS011;42426;46.104;19.656;2023-05-23T12:58:40;12.15;;;7.53;;
56122;SDS011;42426;46.104;19.656;2023-05-23T13:01:07;14.85;;;7.22;;
56122;SDS011;42426;46.104;19.656;2023-05-23T13:03:33;10.75;;;6.97;;
56122;SDS011;42426;46.104;19.656;2023-05-23T13:05:59;14.00;;;6.38;;
56122;SDS011;42426;46.104;19.656;2023-05-23T13:08:25;7.78;;;6.53;;
56122;SDS011;42426;46.104;19.656;2023-05-23T13:10:54;13.27;;;7.10;;
56122;SDS011;42426;46.104;19.656;2023-05-23T13:13:20;7.50;;;5.97;;
56122;SDS011;42426;46.104;19.656;2023-05-23T13:15:46;8.32;;;6.40;;
56122;SDS011;42426;46.104;19.656;2023-05-23T13:18:12;9.48;;;7.40;;
56122;SDS011;42426;46.104;19.656;2023-05-23T13:20:38;13.48;;;7.43;;
56122;SDS011;42426;46.104;19.656;2023-05-23T13:23:06;9.32;;;7.15;;
56122;SDS011;42426;46.104;19.656;2023-05-23T13:25:33;9.30;;;8.00;;
56122;SDS011;42426;46.104;19.656;2023-05-23T13:27:59;7.40;;;6.43;;
56122;SDS011;42426;46.104;19.656;2023-05-23T13:30:26;9.95;;;6.82;;
56122;SDS011;42426;46.104;19.656;2023-05-23T13:32:52;8.10;;;7.30;;
56122;SDS011;42426;46.104;19.656;2023-05-23T13:35:18;8.85;;;7.25;;
56122;SDS011;42426;46.104;19.656;2023-05-23T13:37:43;10.43;;;8.00;;
56122;SDS011;42426;46.104;19.656;2023-05-23T13:40:15;9.18;;;6.78;;
56122;SDS011;42426;46.104;19.656;2023-05-23T13:42:42;7.47;;;6.75;;
56122;SDS011;42426;46.104;19.656;2023-05-23T13:45:08;9.27;;;7.10;;
56122;SDS011;42426;46.104;19.656;2023-05-23T13:47:34;7.70;;;6.90;;
56122;SDS011;42426;46.104;19.656;2023-05-23T13:50:01;7.82;;;7.03;;
56122;SDS011;42426;46.104;19.656;2023-05-23T13:52:28;8.27;;;7.15;;
56122;SDS011;42426;46.104;19.656;2023-05-23T13:54:53;8.88;;;7.43;;
56122;SDS011;42426;46.104;19.656;2023-05-23T13:57:20;11.80;;;6.97;;
56122;SDS011;42426;46.104;19.656;2023-05-23T13:59:45;8.65;;;7.25;;
56122;SDS011;42426;46.104;19.656;2023-05-23T14:02:11;9.63;;;6.93;;
56122;SDS011;42426;46.104;19.656;2023-05-23T14:04:37;7.43;;;6.72;;
56122;SDS011;42426;46.104;19.656;2023-05-23T14:07:03;10.48;;;7.30;;
56122;SDS011;42426;46.104;19.656;2023-05-23T14:09:29;10.57;;;7.88;;
56122;SDS011;42426;46.104;19.656;2023-05-23T14:11:55;14.07;;;7.63;;
56122;SDS011;42426;46.104;19.656;2023-05-23T14:14:21;9.75;;;7.50;;
56122;SDS011;42426;46.104;19.656;2023-05-23T14:16:49;9.80;;;7.90;;
56122;SDS011;42426;46.104;19.656;2023-05-23T14:19:15;12.13;;;7.60;;
56122;SDS011;42426;46.104;19.656;2023-05-23T14:21:41;12.90;;;6.82;;
56122;SDS011;42426;46.104;19.656;2023-05-23T14:24:07;8.30;;;7.40;;
56122;SDS011;42426;46.104;19.656;2023-05-23T14:26:32;8.65;;;7.47;;
56122;SDS011;42426;46.104;19.656;2023-05-23T14:28:58;8.75;;;7.47;;
56122;SDS011;42426;46.104;19.656;2023-05-23T14:31:24;11.43;;;8.15;;
56122;SDS011;42426;46.104;19.656;2023-05-23T14:33:50;9.82;;;7.38;;
56122;SDS011;42426;46.104;19.656;2023-05-23T14:36:16;10.77;;;8.27;;
56122;SDS011;42426;46.104;19.656;2023-05-23T14:38:41;14.68;;;8.60;;
56122;SDS011;42426;46.104;19.656;2023-05-23T14:41:12;8.57;;;7.68;;
56122;SDS011;42426;46.104;19.656;2023-05-23T14:43:38;8.55;;;7.70;;